sensor_id;sensor_type;location;lat;lon;timestamp;P1;durP1;ratioP1;P2;durP2;ratioP2
42186;SDS011;27858;51.414;0.018;2022-12-18T00:01:22;31.33;;;13.57;;
42186;SDS011;27858;51.414;0.018;2022-12-18T00:03:50;23.33;;;11.27;;
42186;SDS011;27858;51.414;0.018;2022-12-18T00:06:19;28.15;;;13.40;;
42186;SDS011;27858;51.414;0.018;2022-12-18T00:08:47;19.27;;;10.15;;
42186;SDS011;27858;51.414;0.018;2022-12-18T00:11:16;23.73;;;11.25;;
42186;SDS011;27858;51.414;0.018;2022-12-18T00:13:44;28.95;;;13.50;;
42186;SDS011;27858;51.414;0.018;2022-12-18T00:16:14;24.33;;;11.20;;
42186;SDS011;27858;51.414;0.018;2022-12-18T00:18:44;26.13;;;12.05;;
42186;SDS011;27858;51.414;0.018;2022-12-18T00:21:11;25.50;;;11.52;;
42186;SDS011;27858;51.414;0.018;2022-12-18T00:23:40;23.92;;;12.48;;
42186;SDS011;27858;51.414;0.018;2022-12-18T00:26:12;25.58;;;12.45;;
42186;SDS011;27858;51.414;0.018;2022-12-18T00:28:41;31.77;;;14.00;;
42186;SDS011;27858;51.414;0.018;2022-12-18T00:31:10;29.65;;;12.07;;
42186;SDS011;27858;51.414;0.018;2022-12-18T00:33:39;33.10;;;14.30;;
42186;SDS011;27858;51.414;0.018;2022-12-18T00:36:09;25.58;;;12.23;;
42186;SDS011;27858;51.414;0.018;2022-12-18T00:38:38;25.08;;;11.95;;
42186;SDS011;27858;51.414;0.018;2022-12-18T00:41:05;30.30;;;12.05;;
42186;SDS011;27858;51.414;0.018;2022-12-18T00:43:34;33.88;;;14.43;;
42186;SDS011;27858;51.414;0.018;2022-12-18T00:46:02;29.92;;;13.93;;
42186;SDS011;27858;51.414;0.018;2022-12-18T00:48:30;29.83;;;13.88;;
42186;SDS011;27858;51.414;0.018;2022-12-18T00:50:57;28.98;;;15.10;;
42186;SDS011;27858;51.414;0.018;2022-12-18T00:53:24;25.40;;;12.30;;
42186;SDS011;27858;51.414;0.018;2022-12-18T00:55:51;25.27;;;13.10;;
42186;SDS011;27858;51.414;0.018;2022-12-18T00:58:18;24.38;;;13.55;;
42186;SDS011;27858;51.414;0.018;2022-12-18T01:00:45;29.88;;;11.65;;
42186;SDS011;27858;51.414;0.018;2022-12-18T01:03:13;28.67;;;11.70;;
42186;SDS011;27858;51.414;0.018;2022-12-18T01:05:40;26.15;;;13.15;;
42186;SDS011;27858;51.414;0.018;2022-12-18T01:08:08;24.05;;;12.30;;
42186;SDS011;27858;51.414;0.018;2022-12-18T01:10:36;32.55;;;13.32;;
42186;SDS011;27858;51.414;0.018;2022-12-18T01:13:05;28.63;;;13.32;;
42186;SDS011;27858;51.414;0.018;2022-12-18T01:15:32;29.48;;;13.25;;
42186;SDS011;27858;51.414;0.018;2022-12-18T01:17:59;30.52;;;14.75;;
42186;SDS011;27858;51.414;0.018;2022-12-18T01:20:25;26.02;;;11.30;;
42186;SDS011;27858;51.414;0.018;2022-12-18T01:22:52;28.48;;;12.50;;
42186;SDS011;27858;51.414;0.018;2022-12-18T01:25:19;22.95;;;10.35;;
42186;SDS011;27858;51.414;0.018;2022-12-18T01:27:45;25.13;;;11.88;;
42186;SDS011;27858;51.414;0.018;2022-12-18T01:30:12;24.50;;;12.07;;
42186;SDS011;27858;51.414;0.018;2022-12-18T01:32:39;27.88;;;12.23;;
42186;SDS011;27858;51.414;0.018;2022-12-18T01:35:06;24.25;;;10.77;;
42186;SDS011;27858;51.414;0.018;2022-12-18T01:37:33;28.70;;;12.30;;
42186;SDS011;27858;51.414;0.018;2022-12-18T01:40:00;23.55;;;10.88;;
42186;SDS011;27858;51.414;0.018;2022-12-18T01:42:27;23.63;;;11.02;;
42186;SDS011;27858;51.414;0.018;2022-12-18T01:45:01;26.20;;;11.30;;
42186;SDS011;27858;51.414;0.018;2022-12-18T01:47:49;23.08;;;10.88;;
42186;SDS011;27858;51.414;0.018;2022-12-18T01:53:04;25.33;;;11.77;;
42186;SDS011;27858;51.414;0.018;2022-12-18T01:55:44;26.35;;;11.27;;
42186;SDS011;27858;51.414;0.018;2022-12-18T01:58:16;24.52;;;10.57;;
42186;SDS011;27858;51.414;0.018;2022-12-18T02:00:44;26.60;;;11.15;;
42186;SDS011;27858;51.414;0.018;2022-12-18T02:03:12;23.02;;;10.73;;
42186;SDS011;27858;51.414;0.018;2022-12-18T02:05:44;22.13;;;9.10;;
42186;SDS011;27858;51.414;0.018;2022-12-18T02:11:05;24.60;;;11.65;;
42186;SDS011;27858;51.414;0.018;2022-12-18T02:18:57;24.33;;;10.88;;
42186;SDS011;27858;51.414;0.018;2022-12-18T02:21:36;24.83;;;10.93;;
42186;SDS011;27858;51.414;0.018;2022-12-18T02:24:34;21.60;;;9.07;;
42186;SDS011;27858;51.414;0.018;2022-12-18T02:27:07;27.08;;;10.10;;
42186;SDS011;27858;51.414;0.018;2022-12-18T02:29:38;24.25;;;10.25;;
42186;SDS011;27858;51.414;0.018;2022-12-18T02:32:11;24.00;;;10.00;;
42186;SDS011;27858;51.414;0.018;2022-12-18T02:34:43;23.13;;;11.60;;
42186;SDS011;27858;51.414;0.018;2022-12-18T02:37:12;21.58;;;10.32;;
42186;SDS011;27858;51.414;0.018;2022-12-18T02:39:42;22.33;;;10.32;;
42186;SDS011;27858;51.414;0.018;2022-12-18T02:42:12;23.13;;;10.38;;
42186;SDS011;27858;51.414;0.018;2022-12-18T02:44:48;18.55;;;7.75;;
42186;SDS011;27858;51.414;0.018;2022-12-18T02:47:17;21.48;;;8.57;;
42186;SDS011;27858;51.414;0.018;2022-12-18T02:49:58;19.83;;;9.93;;
42186;SDS011;27858;51.414;0.018;2022-12-18T02:55:15;22.63;;;8.90;;
42186;SDS011;27858;51.414;0.018;2022-12-18T02:57:54;19.65;;;9.32;;
42186;SDS011;27858;51.414;0.018;2022-12-18T03:00:45;18.83;;;8.52;;
42186;SDS011;27858;51.414;0.018;2022-12-18T03:03:24;19.42;;;8.10;;
42186;SDS011;27858;51.414;0.018;2022-12-18T03:05:53;22.83;;;8.55;;
42186;SDS011;27858;51.414;0.018;2022-12-18T03:08:26;17.73;;;8.73;;
42186;SDS011;27858;51.414;0.018;2022-12-18T03:10:59;19.02;;;8.48;;
42186;SDS011;27858;51.414;0.018;2022-12-18T03:13:44;18.92;;;10.20;;
42186;SDS011;27858;51.414;0.018;2022-12-18T03:16:18;21.77;;;11.10;;
42186;SDS011;27858;51.414;0.018;2022-12-18T03:18:52;20.00;;;10.63;;
42186;SDS011;27858;51.414;0.018;2022-12-18T03:23:54;16.75;;;7.22;;
42186;SDS011;27858;51.414;0.018;2022-12-18T03:26:22;20.83;;;9.25;;
42186;SDS011;27858;51.414;0.018;2022-12-18T03:28:57;21.60;;;9.85;;
42186;SDS011;27858;51.414;0.018;2022-12-18T03:31:28;19.60;;;8.10;;
42186;SDS011;27858;51.414;0.018;2022-12-18T03:33:58;18.30;;;8.48;;
42186;SDS011;27858;51.414;0.018;2022-12-18T03:36:29;17.73;;;8.43;;
42186;SDS011;27858;51.414;0.018;2022-12-18T03:38:56;20.15;;;9.98;;
42186;SDS011;27858;51.414;0.018;2022-12-18T03:41:29;23.35;;;10.43;;
42186;SDS011;27858;51.414;0.018;2022-12-18T03:44:11;19.45;;;9.05;;
42186;SDS011;27858;51.414;0.018;2022-12-18T03:55:33;27.65;;;8.77;;
42186;SDS011;27858;51.414;0.018;2022-12-18T03:58:02;21.05;;;9.32;;
42186;SDS011;27858;51.414;0.018;2022-12-18T04:00:31;25.73;;;11.30;;
42186;SDS011;27858;51.414;0.018;2022-12-18T04:02:59;25.23;;;9.75;;
42186;SDS011;27858;51.414;0.018;2022-12-18T04:05:27;19.17;;;9.20;;
42186;SDS011;27858;51.414;0.018;2022-12-18T04:07:56;22.75;;;9.85;;
42186;SDS011;27858;51.414;0.018;2022-12-18T04:10:23;20.02;;;8.98;;
42186;SDS011;27858;51.414;0.018;2022-12-18T04:12:50;20.10;;;8.35;;
42186;SDS011;27858;51.414;0.018;2022-12-18T04:15:22;18.58;;;7.78;;
42186;SDS011;27858;51.414;0.018;2022-12-18T04:17:50;19.15;;;10.18;;
42186;SDS011;27858;51.414;0.018;2022-12-18T04:20:17;23.08;;;9.85;;
42186;SDS011;27858;51.414;0.018;2022-12-18T04:22:43;21.80;;;10.25;;
42186;SDS011;27858;51.414;0.018;2022-12-18T04:25:11;22.58;;;9.13;;
42186;SDS011;27858;51.414;0.018;2022-12-18T04:27:38;21.08;;;10.68;;
42186;SDS011;27858;51.414;0.018;2022-12-18T04:30:05;26.33;;;10.98;;
42186;SDS011;27858;51.414;0.018;2022-12-18T04:32:33;26.00;;;11.00;;
42186;SDS011;27858;51.414;0.018;2022-12-18T04:35:00;25.60;;;10.52;;
42186;SDS011;27858;51.414;0.018;2022-12-18T04:37:27;24.55;;;9.05;;
42186;SDS011;27858;51.414;0.018;2022-12-18T04:39:55;22.42;;;9.82;;
42186;SDS011;27858;51.414;0.018;2022-12-18T04:42:22;19.13;;;9.98;;
42186;SDS011;27858;51.414;0.018;2022-12-18T04:44:48;23.58;;;10.63;;
42186;SDS011;27858;51.414;0.018;2022-12-18T04:47:15;21.95;;;9.57;;
42186;SDS011;27858;51.414;0.018;2022-12-18T04:49:42;22.33;;;11.02;;
42186;SDS011;27858;51.414;0.018;2022-12-18T04:52:09;21.92;;;10.00;;
42186;SDS011;27858;51.414;0.018;2022-12-18T04:54:36;21.25;;;10.90;;
42186;SDS011;27858;51.414;0.018;2022-12-18T04:57:03;23.13;;;9.85;;
42186;SDS011;27858;51.414;0.018;2022-12-18T04:59:30;23.73;;;11.13;;
42186;SDS011;27858;51.414;0.018;2022-12-18T05:01:57;21.08;;;11.40;;
42186;SDS011;27858;51.414;0.018;2022-12-18T05:04:24;25.77;;;10.30;;
42186;SDS011;27858;51.414;0.018;2022-12-18T05:06:51;22.25;;;10.80;;
42186;SDS011;27858;51.414;0.018;2022-12-18T05:09:18;22.85;;;11.10;;
42186;SDS011;27858;51.414;0.018;2022-12-18T05:11:45;20.83;;;10.27;;
42186;SDS011;27858;51.414;0.018;2022-12-18T05:14:13;23.63;;;9.90;;
42186;SDS011;27858;51.414;0.018;2022-12-18T05:16:40;18.33;;;11.13;;
42186;SDS011;27858;51.414;0.018;2022-12-18T05:19:07;20.02;;;10.05;;
42186;SDS011;27858;51.414;0.018;2022-12-18T05:21:33;21.60;;;10.23;;
42186;SDS011;27858;51.414;0.018;2022-12-18T05:24:00;20.92;;;9.60;;
42186;SDS011;27858;51.414;0.018;2022-12-18T05:26:27;24.60;;;10.68;;
42186;SDS011;27858;51.414;0.018;2022-12-18T05:28:54;22.02;;;9.90;;
42186;SDS011;27858;51.414;0.018;2022-12-18T05:31:21;23.20;;;9.15;;
42186;SDS011;27858;51.414;0.018;2022-12-18T05:33:48;18.88;;;9.30;;
42186;SDS011;27858;51.414;0.018;2022-12-18T05:36:15;20.23;;;10.75;;
42186;SDS011;27858;51.414;0.018;2022-12-18T05:38:42;31.00;;;12.43;;
42186;SDS011;27858;51.414;0.018;2022-12-18T05:41:09;21.73;;;11.20;;
42186;SDS011;27858;51.414;0.018;2022-12-18T05:43:36;22.83;;;10.95;;
42186;SDS011;27858;51.414;0.018;2022-12-18T05:46:06;24.08;;;10.15;;
42186;SDS011;27858;51.414;0.018;2022-12-18T05:48:35;21.80;;;11.07;;
42186;SDS011;27858;51.414;0.018;2022-12-18T05:51:09;20.58;;;10.13;;
42186;SDS011;27858;51.414;0.018;2022-12-18T05:53:38;18.80;;;9.35;;
42186;SDS011;27858;51.414;0.018;2022-12-18T05:56:07;24.52;;;11.07;;
42186;SDS011;27858;51.414;0.018;2022-12-18T05:58:36;21.70;;;9.48;;
42186;SDS011;27858;51.414;0.018;2022-12-18T06:01:08;17.80;;;10.30;;
42186;SDS011;27858;51.414;0.018;2022-12-18T06:03:39;23.83;;;9.98;;
42186;SDS011;27858;51.414;0.018;2022-12-18T06:06:19;21.20;;;10.30;;
42186;SDS011;27858;51.414;0.018;2022-12-18T06:08:51;23.92;;;11.68;;
42186;SDS011;27858;51.414;0.018;2022-12-18T06:11:20;21.13;;;11.18;;
42186;SDS011;27858;51.414;0.018;2022-12-18T06:13:50;27.35;;;11.18;;
42186;SDS011;27858;51.414;0.018;2022-12-18T06:16:23;25.27;;;11.07;;
42186;SDS011;27858;51.414;0.018;2022-12-18T06:18:51;26.48;;;10.98;;
42186;SDS011;27858;51.414;0.018;2022-12-18T06:21:18;24.80;;;10.45;;
42186;SDS011;27858;51.414;0.018;2022-12-18T06:23:45;24.85;;;10.60;;
42186;SDS011;27858;51.414;0.018;2022-12-18T06:26:12;23.15;;;11.10;;
42186;SDS011;27858;51.414;0.018;2022-12-18T06:28:39;26.73;;;12.10;;
42186;SDS011;27858;51.414;0.018;2022-12-18T06:31:07;24.02;;;10.23;;
42186;SDS011;27858;51.414;0.018;2022-12-18T06:33:36;23.27;;;9.98;;
42186;SDS011;27858;51.414;0.018;2022-12-18T06:36:08;20.30;;;10.20;;
42186;SDS011;27858;51.414;0.018;2022-12-18T06:38:38;22.52;;;10.80;;
42186;SDS011;27858;51.414;0.018;2022-12-18T06:41:11;21.23;;;10.48;;
42186;SDS011;27858;51.414;0.018;2022-12-18T06:43:39;21.65;;;10.82;;
42186;SDS011;27858;51.414;0.018;2022-12-18T06:46:06;21.88;;;10.02;;
42186;SDS011;27858;51.414;0.018;2022-12-18T06:48:34;25.83;;;10.88;;
42186;SDS011;27858;51.414;0.018;2022-12-18T06:51:01;23.55;;;10.38;;
42186;SDS011;27858;51.414;0.018;2022-12-18T06:53:29;21.08;;;10.43;;
42186;SDS011;27858;51.414;0.018;2022-12-18T06:56:03;22.75;;;11.15;;
42186;SDS011;27858;51.414;0.018;2022-12-18T06:58:35;28.83;;;11.63;;
42186;SDS011;27858;51.414;0.018;2022-12-18T07:01:04;23.80;;;11.18;;
42186;SDS011;27858;51.414;0.018;2022-12-18T07:03:31;19.85;;;9.77;;
42186;SDS011;27858;51.414;0.018;2022-12-18T07:05:58;22.30;;;11.13;;
42186;SDS011;27858;51.414;0.018;2022-12-18T07:08:25;19.55;;;10.45;;
42186;SDS011;27858;51.414;0.018;2022-12-18T07:10:52;24.50;;;10.63;;
42186;SDS011;27858;51.414;0.018;2022-12-18T07:13:21;23.90;;;10.57;;
42186;SDS011;27858;51.414;0.018;2022-12-18T07:15:48;23.40;;;9.95;;
42186;SDS011;27858;51.414;0.018;2022-12-18T07:18:15;22.52;;;11.23;;
42186;SDS011;27858;51.414;0.018;2022-12-18T07:20:42;17.70;;;10.35;;
42186;SDS011;27858;51.414;0.018;2022-12-18T07:23:09;23.08;;;9.20;;
42186;SDS011;27858;51.414;0.018;2022-12-18T07:25:35;20.85;;;9.27;;
42186;SDS011;27858;51.414;0.018;2022-12-18T07:28:03;18.98;;;9.45;;
42186;SDS011;27858;51.414;0.018;2022-12-18T07:30:30;19.33;;;9.55;;
42186;SDS011;27858;51.414;0.018;2022-12-18T07:32:57;18.88;;;10.88;;
42186;SDS011;27858;51.414;0.018;2022-12-18T07:35:23;21.98;;;10.13;;
42186;SDS011;27858;51.414;0.018;2022-12-18T07:37:50;18.73;;;9.32;;
42186;SDS011;27858;51.414;0.018;2022-12-18T07:40:17;19.80;;;8.95;;
42186;SDS011;27858;51.414;0.018;2022-12-18T07:42:44;20.25;;;9.88;;
42186;SDS011;27858;51.414;0.018;2022-12-18T07:45:11;26.80;;;10.77;;
42186;SDS011;27858;51.414;0.018;2022-12-18T07:47:38;22.20;;;10.23;;
42186;SDS011;27858;51.414;0.018;2022-12-18T07:50:05;21.30;;;9.98;;
42186;SDS011;27858;51.414;0.018;2022-12-18T07:52:32;21.30;;;10.63;;
42186;SDS011;27858;51.414;0.018;2022-12-18T07:54:59;22.55;;;10.82;;
42186;SDS011;27858;51.414;0.018;2022-12-18T07:57:26;18.77;;;8.88;;
42186;SDS011;27858;51.414;0.018;2022-12-18T08:00:13;20.67;;;10.00;;
42186;SDS011;27858;51.414;0.018;2022-12-18T08:02:40;24.20;;;9.30;;
42186;SDS011;27858;51.414;0.018;2022-12-18T08:05:07;23.20;;;9.90;;
42186;SDS011;27858;51.414;0.018;2022-12-18T08:07:34;21.67;;;9.40;;
42186;SDS011;27858;51.414;0.018;2022-12-18T08:10:01;22.27;;;9.48;;
42186;SDS011;27858;51.414;0.018;2022-12-18T08:12:29;20.13;;;10.05;;
42186;SDS011;27858;51.414;0.018;2022-12-18T08:14:55;21.95;;;9.18;;
42186;SDS011;27858;51.414;0.018;2022-12-18T08:17:22;23.50;;;8.95;;
42186;SDS011;27858;51.414;0.018;2022-12-18T08:19:49;24.48;;;9.70;;
42186;SDS011;27858;51.414;0.018;2022-12-18T08:22:15;17.38;;;8.55;;
42186;SDS011;27858;51.414;0.018;2022-12-18T08:24:42;22.77;;;11.85;;
42186;SDS011;27858;51.414;0.018;2022-12-18T08:27:09;19.50;;;9.60;;
42186;SDS011;27858;51.414;0.018;2022-12-18T08:29:55;21.27;;;11.15;;
42186;SDS011;27858;51.414;0.018;2022-12-18T08:32:22;24.75;;;9.20;;
42186;SDS011;27858;51.414;0.018;2022-12-18T08:34:50;22.02;;;11.02;;
42186;SDS011;27858;51.414;0.018;2022-12-18T08:37:17;18.40;;;9.73;;
42186;SDS011;27858;51.414;0.018;2022-12-18T08:39:44;18.08;;;8.73;;
42186;SDS011;27858;51.414;0.018;2022-12-18T08:42:10;18.55;;;8.75;;
42186;SDS011;27858;51.414;0.018;2022-12-18T08:44:56;21.35;;;9.23;;
42186;SDS011;27858;51.414;0.018;2022-12-18T08:47:22;21.48;;;10.07;;
42186;SDS011;27858;51.414;0.018;2022-12-18T08:49:49;20.65;;;10.52;;
42186;SDS011;27858;51.414;0.018;2022-12-18T08:52:16;24.05;;;10.32;;
42186;SDS011;27858;51.414;0.018;2022-12-18T08:54:43;21.65;;;10.10;;
42186;SDS011;27858;51.414;0.018;2022-12-18T08:57:09;22.50;;;10.40;;
42186;SDS011;27858;51.414;0.018;2022-12-18T08:59:36;23.23;;;9.75;;
42186;SDS011;27858;51.414;0.018;2022-12-18T09:02:03;22.35;;;10.27;;
42186;SDS011;27858;51.414;0.018;2022-12-18T09:04:30;26.83;;;12.50;;
42186;SDS011;27858;51.414;0.018;2022-12-18T09:06:56;26.20;;;10.45;;
42186;SDS011;27858;51.414;0.018;2022-12-18T09:09:23;24.42;;;11.13;;
42186;SDS011;27858;51.414;0.018;2022-12-18T09:11:50;25.90;;;11.15;;
42186;SDS011;27858;51.414;0.018;2022-12-18T09:14:17;28.55;;;9.75;;
42186;SDS011;27858;51.414;0.018;2022-12-18T09:16:43;23.40;;;9.93;;
42186;SDS011;27858;51.414;0.018;2022-12-18T09:19:10;25.75;;;11.73;;
42186;SDS011;27858;51.414;0.018;2022-12-18T09:21:37;20.15;;;9.82;;
42186;SDS011;27858;51.414;0.018;2022-12-18T09:24:14;20.27;;;11.05;;
42186;SDS011;27858;51.414;0.018;2022-12-18T09:26:42;18.70;;;11.02;;
42186;SDS011;27858;51.414;0.018;2022-12-18T09:29:13;21.73;;;10.70;;
42186;SDS011;27858;51.414;0.018;2022-12-18T09:31:41;24.88;;;11.35;;
42186;SDS011;27858;51.414;0.018;2022-12-18T09:34:08;23.92;;;10.05;;
42186;SDS011;27858;51.414;0.018;2022-12-18T09:36:35;22.20;;;10.00;;
42186;SDS011;27858;51.414;0.018;2022-12-18T09:39:02;18.83;;;9.30;;
42186;SDS011;27858;51.414;0.018;2022-12-18T09:41:39;17.25;;;8.32;;
42186;SDS011;27858;51.414;0.018;2022-12-18T09:44:27;22.23;;;10.48;;
42186;SDS011;27858;51.414;0.018;2022-12-18T09:47:10;20.40;;;8.77;;
42186;SDS011;27858;51.414;0.018;2022-12-18T09:49:56;17.42;;;8.95;;
42186;SDS011;27858;51.414;0.018;2022-12-18T09:52:31;17.38;;;7.90;;
42186;SDS011;27858;51.414;0.018;2022-12-18T09:55:03;17.38;;;9.05;;
42186;SDS011;27858;51.414;0.018;2022-12-18T09:57:45;20.02;;;8.10;;
42186;SDS011;27858;51.414;0.018;2022-12-18T10:00:16;20.65;;;9.68;;
42186;SDS011;27858;51.414;0.018;2022-12-18T10:02:46;21.80;;;10.20;;
42186;SDS011;27858;51.414;0.018;2022-12-18T10:05:15;14.82;;;8.85;;
42186;SDS011;27858;51.414;0.018;2022-12-18T10:13:29;22.30;;;9.32;;
42186;SDS011;27858;51.414;0.018;2022-12-18T10:16:22;22.08;;;10.57;;
42186;SDS011;27858;51.414;0.018;2022-12-18T10:22:03;21.10;;;8.88;;
42186;SDS011;27858;51.414;0.018;2022-12-18T10:24:32;20.90;;;8.82;;
42186;SDS011;27858;51.414;0.018;2022-12-18T10:27:37;20.52;;;8.88;;
42186;SDS011;27858;51.414;0.018;2022-12-18T10:29:58;19.33;;;10.05;;
42186;SDS011;27858;51.414;0.018;2022-12-18T10:32:28;17.30;;;8.98;;
42186;SDS011;27858;51.414;0.018;2022-12-18T10:34:57;17.25;;;9.15;;
42186;SDS011;27858;51.414;0.018;2022-12-18T10:37:27;18.27;;;9.98;;
42186;SDS011;27858;51.414;0.018;2022-12-18T10:40:09;17.65;;;8.43;;
42186;SDS011;27858;51.414;0.018;2022-12-18T10:42:55;23.50;;;10.38;;
42186;SDS011;27858;51.414;0.018;2022-12-18T10:45:30;20.90;;;9.95;;
42186;SDS011;27858;51.414;0.018;2022-12-18T10:47:57;19.65;;;9.48;;
42186;SDS011;27858;51.414;0.018;2022-12-18T10:50:34;21.92;;;9.65;;
42186;SDS011;27858;51.414;0.018;2022-12-18T10:53:27;24.77;;;9.27;;
42186;SDS011;27858;51.414;0.018;2022-12-18T10:55:57;23.02;;;7.63;;
42186;SDS011;27858;51.414;0.018;2022-12-18T10:58:35;14.68;;;8.25;;
42186;SDS011;27858;51.414;0.018;2022-12-18T11:01:25;16.30;;;9.10;;
42186;SDS011;27858;51.414;0.018;2022-12-18T11:06:27;19.52;;;10.13;;
42186;SDS011;27858;51.414;0.018;2022-12-18T11:11:24;20.45;;;10.27;;
42186;SDS011;27858;51.414;0.018;2022-12-18T11:13:59;22.30;;;11.52;;
42186;SDS011;27858;51.414;0.018;2022-12-18T11:16:27;19.45;;;10.93;;
42186;SDS011;27858;51.414;0.018;2022-12-18T11:22:28;17.80;;;8.07;;
42186;SDS011;27858;51.414;0.018;2022-12-18T11:25:12;20.25;;;9.25;;
42186;SDS011;27858;51.414;0.018;2022-12-18T11:28:00;17.85;;;9.57;;
42186;SDS011;27858;51.414;0.018;2022-12-18T11:33:03;23.65;;;11.35;;
42186;SDS011;27858;51.414;0.018;2022-12-18T11:38:22;15.95;;;8.52;;
42186;SDS011;27858;51.414;0.018;2022-12-18T11:40:58;23.20;;;11.80;;
42186;SDS011;27858;51.414;0.018;2022-12-18T11:43:45;22.73;;;10.45;;
42186;SDS011;27858;51.414;0.018;2022-12-18T11:46:34;24.83;;;11.80;;
42186;SDS011;27858;51.414;0.018;2022-12-18T11:51:45;22.50;;;9.75;;
42186;SDS011;27858;51.414;0.018;2022-12-18T11:54:26;17.80;;;10.27;;
42186;SDS011;27858;51.414;0.018;2022-12-18T11:56:54;21.00;;;10.98;;
42186;SDS011;27858;51.414;0.018;2022-12-18T11:59:33;24.30;;;10.52;;
42186;SDS011;27858;51.414;0.018;2022-12-18T12:05:06;18.92;;;10.02;;
42186;SDS011;27858;51.414;0.018;2022-12-18T12:16:18;16.00;;;9.55;;
42186;SDS011;27858;51.414;0.018;2022-12-18T12:19:49;21.55;;;9.52;;
42186;SDS011;27858;51.414;0.018;2022-12-18T12:27:45;21.45;;;9.77;;
42186;SDS011;27858;51.414;0.018;2022-12-18T12:35:52;17.20;;;9.90;;
42186;SDS011;27858;51.414;0.018;2022-12-18T12:38:24;21.65;;;11.43;;
42186;SDS011;27858;51.414;0.018;2022-12-18T12:43:46;16.92;;;9.13;;
42186;SDS011;27858;51.414;0.018;2022-12-18T12:46:17;17.92;;;8.95;;
42186;SDS011;27858;51.414;0.018;2022-12-18T12:53:48;20.17;;;9.55;;
42186;SDS011;27858;51.414;0.018;2022-12-18T12:56:16;19.80;;;10.32;;
42186;SDS011;27858;51.414;0.018;2022-12-18T13:03:56;19.38;;;10.02;;
42186;SDS011;27858;51.414;0.018;2022-12-18T13:06:49;26.05;;;13.40;;
42186;SDS011;27858;51.414;0.018;2022-12-18T13:09:17;27.90;;;11.98;;
42186;SDS011;27858;51.414;0.018;2022-12-18T13:11:45;26.20;;;12.10;;
42186;SDS011;27858;51.414;0.018;2022-12-18T13:20:20;19.60;;;10.30;;
42186;SDS011;27858;51.414;0.018;2022-12-18T13:22:45;31.10;;;12.98;;
42186;SDS011;27858;51.414;0.018;2022-12-18T13:38:34;18.38;;;11.32;;
42186;SDS011;27858;51.414;0.018;2022-12-18T13:41:03;16.65;;;9.43;;
42186;SDS011;27858;51.414;0.018;2022-12-18T13:44:10;14.20;;;7.85;;
42186;SDS011;27858;51.414;0.018;2022-12-18T13:46:48;16.75;;;9.55;;
42186;SDS011;27858;51.414;0.018;2022-12-18T13:51:55;17.02;;;7.80;;
42186;SDS011;27858;51.414;0.018;2022-12-18T13:57:00;16.85;;;9.80;;
42186;SDS011;27858;51.414;0.018;2022-12-18T13:59:38;13.70;;;6.82;;
42186;SDS011;27858;51.414;0.018;2022-12-18T14:02:13;13.88;;;8.20;;
42186;SDS011;27858;51.414;0.018;2022-12-18T14:04:52;22.30;;;8.63;;
42186;SDS011;27858;51.414;0.018;2022-12-18T14:09:53;11.82;;;7.30;;
42186;SDS011;27858;51.414;0.018;2022-12-18T14:12:37;15.68;;;7.70;;
42186;SDS011;27858;51.414;0.018;2022-12-18T14:17:53;12.00;;;6.32;;
42186;SDS011;27858;51.414;0.018;2022-12-18T14:20:50;10.55;;;5.80;;
42186;SDS011;27858;51.414;0.018;2022-12-18T14:23:27;13.40;;;7.55;;
42186;SDS011;27858;51.414;0.018;2022-12-18T14:25:57;12.00;;;7.47;;
42186;SDS011;27858;51.414;0.018;2022-12-18T14:28:31;14.05;;;6.95;;
42186;SDS011;27858;51.414;0.018;2022-12-18T14:30:58;13.38;;;6.88;;
42186;SDS011;27858;51.414;0.018;2022-12-18T14:33:26;9.98;;;5.90;;
42186;SDS011;27858;51.414;0.018;2022-12-18T14:35:54;14.05;;;6.50;;
42186;SDS011;27858;51.414;0.018;2022-12-18T14:38:27;11.73;;;7.25;;
42186;SDS011;27858;51.414;0.018;2022-12-18T14:41:00;12.50;;;7.15;;
42186;SDS011;27858;51.414;0.018;2022-12-18T14:43:32;11.10;;;6.28;;
42186;SDS011;27858;51.414;0.018;2022-12-18T14:46:00;8.80;;;5.90;;
42186;SDS011;27858;51.414;0.018;2022-12-18T14:48:41;9.10;;;5.47;;
42186;SDS011;27858;51.414;0.018;2022-12-18T14:51:17;10.80;;;5.85;;
42186;SDS011;27858;51.414;0.018;2022-12-18T14:54:01;15.20;;;7.38;;
42186;SDS011;27858;51.414;0.018;2022-12-18T14:56:31;12.77;;;6.50;;
42186;SDS011;27858;51.414;0.018;2022-12-18T14:59:06;9.55;;;5.70;;
42186;SDS011;27858;51.414;0.018;2022-12-18T15:04:38;9.98;;;6.10;;
42186;SDS011;27858;51.414;0.018;2022-12-18T15:09:44;9.95;;;6.25;;
42186;SDS011;27858;51.414;0.018;2022-12-18T15:12:37;12.52;;;6.78;;
42186;SDS011;27858;51.414;0.018;2022-12-18T15:18:05;10.52;;;6.20;;
42186;SDS011;27858;51.414;0.018;2022-12-18T15:20:40;9.65;;;5.78;;
42186;SDS011;27858;51.414;0.018;2022-12-18T15:23:16;9.38;;;5.50;;
42186;SDS011;27858;51.414;0.018;2022-12-18T15:26:02;9.00;;;4.82;;
42186;SDS011;27858;51.414;0.018;2022-12-18T15:28:36;10.00;;;6.88;;
42186;SDS011;27858;51.414;0.018;2022-12-18T15:33:36;7.47;;;4.93;;
42186;SDS011;27858;51.414;0.018;2022-12-18T15:36:11;9.00;;;6.00;;
42186;SDS011;27858;51.414;0.018;2022-12-18T15:38:52;11.07;;;5.90;;
42186;SDS011;27858;51.414;0.018;2022-12-18T15:41:21;8.43;;;4.90;;
42186;SDS011;27858;51.414;0.018;2022-12-18T15:43:50;12.18;;;5.85;;
42186;SDS011;27858;51.414;0.018;2022-12-18T15:46:19;11.27;;;4.95;;
42186;SDS011;27858;51.414;0.018;2022-12-18T15:48:49;9.63;;;5.13;;
42186;SDS011;27858;51.414;0.018;2022-12-18T15:51:44;8.68;;;5.03;;
42186;SDS011;27858;51.414;0.018;2022-12-18T15:54:18;9.90;;;4.13;;
42186;SDS011;27858;51.414;0.018;2022-12-18T15:57:10;8.20;;;4.43;;
42186;SDS011;27858;51.414;0.018;2022-12-18T15:59:50;7.28;;;5.32;;
42186;SDS011;27858;51.414;0.018;2022-12-18T16:02:19;10.98;;;5.35;;
42186;SDS011;27858;51.414;0.018;2022-12-18T16:04:46;8.40;;;4.57;;
42186;SDS011;27858;51.414;0.018;2022-12-18T16:07:13;8.00;;;4.70;;
42186;SDS011;27858;51.414;0.018;2022-12-18T16:09:50;7.43;;;4.25;;
42186;SDS011;27858;51.414;0.018;2022-12-18T16:12:18;8.43;;;4.05;;
42186;SDS011;27858;51.414;0.018;2022-12-18T16:14:47;6.70;;;3.70;;
42186;SDS011;27858;51.414;0.018;2022-12-18T16:17:14;7.50;;;4.32;;
42186;SDS011;27858;51.414;0.018;2022-12-18T16:19:41;6.38;;;4.05;;
42186;SDS011;27858;51.414;0.018;2022-12-18T16:22:22;5.65;;;4.13;;
42186;SDS011;27858;51.414;0.018;2022-12-18T16:24:54;5.95;;;3.75;;
42186;SDS011;27858;51.414;0.018;2022-12-18T16:27:22;9.50;;;3.50;;
42186;SDS011;27858;51.414;0.018;2022-12-18T16:29:52;6.55;;;4.22;;
42186;SDS011;27858;51.414;0.018;2022-12-18T16:32:20;3.90;;;2.35;;
42186;SDS011;27858;51.414;0.018;2022-12-18T16:34:49;3.45;;;2.45;;
42186;SDS011;27858;51.414;0.018;2022-12-18T16:37:16;3.38;;;1.80;;
42186;SDS011;27858;51.414;0.018;2022-12-18T16:39:43;2.42;;;1.90;;
42186;SDS011;27858;51.414;0.018;2022-12-18T16:42:12;4.47;;;2.30;;
42186;SDS011;27858;51.414;0.018;2022-12-18T16:44:42;3.47;;;1.65;;
42186;SDS011;27858;51.414;0.018;2022-12-18T16:47:09;3.25;;;1.80;;
42186;SDS011;27858;51.414;0.018;2022-12-18T16:49:40;3.90;;;2.05;;
42186;SDS011;27858;51.414;0.018;2022-12-18T16:52:07;2.40;;;1.73;;
42186;SDS011;27858;51.414;0.018;2022-12-18T16:54:34;2.22;;;1.70;;
42186;SDS011;27858;51.414;0.018;2022-12-18T16:57:02;3.75;;;2.03;;
42186;SDS011;27858;51.414;0.018;2022-12-18T16:59:30;3.83;;;2.28;;